createdAt,value
2023-03-16T00:00:19.990Z,99267.50
2023-03-16T00:02:47.346Z,99258.63
2023-03-16T00:05:15.169Z,99260.69
2023-03-16T00:07:43.193Z,99259.63
2023-03-16T00:10:12.683Z,99262.53
2023-03-16T00:12:44.023Z,99257.63
2023-03-16T00:15:11.685Z,99254.94
2023-03-16T00:17:39.094Z,99263.00
2023-03-16T00:20:07.475Z,99251.63
2023-03-16T00:22:34.736Z,99259.69
2023-03-16T00:25:01.971Z,99251.03
2023-03-16T00:27:29.243Z,99246.44
2023-03-16T00:29:58.036Z,99252.28
2023-03-16T00:32:28.917Z,99254.38
2023-03-16T00:34:56.201Z,99243.38
2023-03-16T00:37:24.554Z,99250.84
2023-03-16T00:39:52.351Z,99250.03
2023-03-16T00:42:20.327Z,99240.06
2023-03-16T00:44:47.388Z,99243.81
2023-03-16T00:47:15.745Z,99243.81
2023-03-16T00:49:44.116Z,99234.94
2023-03-16T00:52:16.465Z,99230.34
2023-03-16T00:54:44.871Z,99227.88
2023-03-16T00:57:12.922Z,99225.41
2023-03-16T00:59:40.925Z,99233.47
2023-03-16T01:02:09.254Z,99226.41
2023-03-16T01:04:39.893Z,99220.44
2023-03-16T01:07:08.053Z,99223.13
2023-03-16T01:09:37.223Z,99232.03
2023-03-16T01:12:06.416Z,99230.59
2023-03-16T01:14:35.626Z,99224.41
2023-03-16T01:17:04.791Z,99229.16
2023-03-16T01:19:35.714Z,99224.84
2023-03-16T01:22:06.630Z,99220.25
2023-03-16T01:24:37.152Z,99219.44
2023-03-16T01:27:05.113Z,99219.66
2023-03-16T01:29:33.384Z,99216.34
2023-03-16T01:32:01.069Z,99211.59
2023-03-16T01:34:32.039Z,99209.13
2023-03-16T01:37:00.101Z,99205.84
2023-03-16T01:39:49.087Z,99203.38
2023-03-16T01:42:16.613Z,99204.16
2023-03-16T01:44:52.142Z,99203.38
2023-03-16T01:47:19.501Z,99196.31
2023-03-16T01:49:48.300Z,99197.97
2023-03-16T01:52:19.203Z,99200.03
2023-03-16T01:54:50.565Z,99199.47
2023-03-16T01:57:19.598Z,99191.38
2023-03-16T01:59:50.467Z,99186.44
2023-03-16T02:02:21.620Z,99190.19
2023-03-16T02:04:52.136Z,99188.06
2023-03-16T02:07:58.592Z,99184.19
2023-03-16T02:19:47.323Z,99174.09
2023-03-16T02:22:14.946Z,99172.19
2023-03-16T02:24:42.569Z,99171.19
2023-03-16T02:27:12.744Z,99167.44
2023-03-16T02:30:02.975Z,99154.19
2023-03-16T02:32:37.109Z,99152.34
2023-03-16T02:35:06.116Z,99145.28
2023-03-16T02:37:36.465Z,99144.50
2023-03-16T02:40:20.882Z,99147.97
2023-03-16T02:42:56.363Z,99141.59
2023-03-16T02:45:33.490Z,99147.19
2023-03-16T02:48:05.722Z,99143.44
2023-03-16T02:50:32.432Z,99138.28
2023-03-16T02:52:59.410Z,99144.91
2023-03-16T02:55:26.577Z,99137.06
2023-03-16T02:57:53.589Z,99132.72
2023-03-16T03:00:22.123Z,99134.38
2023-03-16T03:02:52.777Z,99136.22
2023-03-16T03:05:20.761Z,99123.63
2023-03-16T03:07:47.822Z,99127.13
2023-03-16T03:10:15.139Z,99125.47
2023-03-16T03:12:42.715Z,99124.66
2023-03-16T03:15:10.962Z,99126.53
2023-03-16T03:18:02.687Z,99120.34
2023-03-16T03:20:31.080Z,99120.34
2023-03-16T03:22:57.959Z,99104.41
2023-03-16T03:25:25.028Z,99108.94
2023-03-16T03:27:56.856Z,99104.41
2023-03-16T03:30:25.487Z,99094.91
2023-03-16T03:32:52.915Z,99098.63
2023-03-16T03:35:23.267Z,99093.25
2023-03-16T03:37:50.810Z,99093.25
2023-03-16T03:40:19.788Z,99095.94
2023-03-16T03:42:51.448Z,99088.91
2023-03-16T03:45:18.834Z,99092.44
2023-03-16T03:47:45.798Z,99088.91
2023-03-16T03:50:18.958Z,99095.13
2023-03-16T03:53:11.569Z,99098.03
2023-03-16T03:55:58.846Z,99090.19
2023-03-16T03:58:25.851Z,99089.34
2023-03-16T04:00:52.786Z,99085.84
2023-03-16T04:03:19.820Z,99085.03
2023-03-16T04:05:47.339Z,99080.47
2023-03-16T04:08:16.735Z,99077.78
2023-03-16T04:10:44.834Z,99078.81
2023-03-16T04:13:11.907Z,99069.94
2023-03-16T04:15:38.876Z,99069.94
2023-03-16T04:18:13.675Z,99064.75
2023-03-16T04:20:41.907Z,99072.84
2023-03-16T04:23:10.187Z,99066.63
2023-03-16T04:25:41.398Z,99076.56
2023-03-16T04:28:09.348Z,99078.44
2023-03-16T04:30:39.010Z,99075.75
2023-03-16T04:33:15.983Z,99083.81
2023-03-16T04:35:46.348Z,99079.47
2023-03-16T04:38:15.337Z,99085.91
2023-03-16T04:40:53.307Z,99085.91
2023-03-16T04:43:23.798Z,99086.94
2023-03-16T04:45:55.427Z,99086.94
2023-03-16T04:48:26.217Z,99080.75
2023-03-16T04:50:54.492Z,99081.56
2023-03-16T04:53:21.692Z,99078.06
2023-03-16T04:55:56.471Z,99085.28
2023-03-16T04:58:23.526Z,99076.38
2023-03-16T05:00:52.344Z,99079.91
2023-03-16T05:03:25.021Z,99096.06
2023-03-16T05:05:52.252Z,99083.66
2023-03-16T05:08:19.412Z,99081.19
2023-03-16T05:10:49.557Z,99083.03
2023-03-16T05:13:18.812Z,99081.19
2023-03-16T05:15:48.874Z,99077.66
2023-03-16T05:18:24.028Z,99071.69
2023-03-16T05:20:52.289Z,99076.22
2023-03-16T05:23:20.464Z,99076.22
2023-03-16T05:25:52.773Z,99076.22
2023-03-16T05:28:24.093Z,99073.75
2023-03-16T05:30:57.030Z,99072.13
2023-03-16T05:33:27.421Z,99064.06
2023-03-16T05:36:03.055Z,99059.50
2023-03-16T05:38:32.020Z,99047.25
2023-03-16T05:41:03.384Z,99027.75
2023-03-16T05:43:46.477Z,99021.09
2023-03-16T05:46:14.949Z,99015.28
2023-03-16T05:48:42.261Z,99018.59
2023-03-16T05:51:14.299Z,99030.34
2023-03-16T05:53:42.563Z,99036.94
2023-03-16T05:56:17.469Z,99023.63
2023-03-16T05:58:47.604Z,99031.63
2023-03-16T06:01:15.693Z,99036.09
2023-03-16T06:03:43.821Z,99037.06
2023-03-16T06:06:16.892Z,99022.25
2023-03-16T06:08:54.156Z,99026.56
2023-03-16T06:11:23.325Z,99029.19
2023-03-16T06:13:51.728Z,99040.72
2023-03-16T06:16:18.818Z,99041.44
2023-03-16T06:18:45.936Z,99046.50
2023-03-16T06:21:13.192Z,99055.34
2023-03-16T06:23:41.054Z,99061.25
2023-03-16T06:26:09.548Z,99065.47
2023-03-16T06:28:39.954Z,99081.34
2023-03-16T06:31:08.493Z,99076.91
2023-03-16T06:33:36.512Z,99065.22
2023-03-16T06:36:03.965Z,99060.00
2023-03-16T06:38:36.096Z,99053.31
2023-03-16T06:41:07.087Z,99052.25
2023-03-16T06:43:37.643Z,99069.06
2023-03-16T06:46:05.725Z,99070.69
2023-03-16T06:48:34.061Z,99068.00
2023-03-16T06:51:01.556Z,99066.94
2023-03-16T06:53:29.878Z,99057.22
2023-03-16T06:55:57.633Z,99059.91
2023-03-16T06:58:26.679Z,99043.94
2023-03-16T07:00:54.100Z,99039.84
2023-03-16T07:03:21.645Z,99038.66
2023-03-16T07:05:56.082Z,99043.66
2023-03-16T07:08:23.072Z,99039.00
2023-03-16T07:10:50.941Z,99040.47
2023-03-16T07:13:18.137Z,99034.47
2023-03-16T07:15:45.118Z,99035.97
2023-03-16T07:18:14.939Z,99034.78
2023-03-16T07:20:42.799Z,99042.28
2023-03-16T07:23:12.506Z,99052.47
2023-03-16T07:25:40.944Z,99050.25
2023-03-16T07:28:07.934Z,99062.03
2023-03-16T07:30:41.274Z,99056.88
2023-03-16T07:33:10.137Z,99057.50
2023-03-16T07:35:38.507Z,99064.72
2023-03-16T07:38:05.565Z,99069.31
2023-03-16T07:40:34.938Z,99064.16
2023-03-16T07:43:09.832Z,99059.00
2023-03-16T07:45:48.837Z,99059.81
2023-03-16T07:48:18.447Z,99059.81
2023-03-16T07:50:50.940Z,99057.34
2023-03-16T07:53:18.739Z,99055.47
2023-03-16T07:55:52.112Z,99050.56
2023-03-16T07:58:19.484Z,99054.88
2023-03-16T08:00:48.538Z,99045.97
2023-03-16T08:03:15.748Z,99045.38
2023-03-16T08:05:44.495Z,99042.91
2023-03-16T08:08:16.292Z,99036.69
2023-03-16T08:10:43.864Z,99036.13
2023-03-16T08:13:16.225Z,99032.38
2023-03-16T08:15:47.532Z,99028.03
2023-03-16T08:18:26.004Z,99026.97
2023-03-16T08:20:53.739Z,99026.16
2023-03-16T08:23:21.319Z,99026.41
2023-03-16T08:25:52.790Z,99032.38
2023-03-16T08:28:21.766Z,99035.91
2023-03-16T08:30:51.227Z,99035.91
2023-03-16T08:33:41.273Z,99023.44
2023-03-16T08:36:11.792Z,99020.75
2023-03-16T08:38:40.196Z,99020.75
2023-03-16T08:41:09.868Z,99021.81
2023-03-16T08:43:38.307Z,99017.47
2023-03-16T08:46:06.996Z,99011.03
2023-03-16T08:49:00.365Z,99006.50
2023-03-16T08:51:29.456Z,99008.97
2023-03-16T08:53:56.885Z,98999.22
2023-03-16T08:56:23.850Z,99006.50
2023-03-16T08:58:52.241Z,99007.06
2023-03-16T09:01:19.791Z,98997.34
2023-03-16T09:03:47.006Z,98998.75
2023-03-16T09:06:16.118Z,98998.19
2023-03-16T09:08:45.425Z,98996.50
2023-03-16T09:11:14.925Z,98993.59
2023-03-16T09:13:43.153Z,98983.03
2023-03-16T09:16:12.612Z,98984.09
2023-03-16T09:18:40.184Z,98987.63
2023-03-16T09:21:10.409Z,98986.56
2023-03-16T09:23:37.797Z,98980.34
2023-03-16T09:26:09.501Z,98992.78
2023-03-16T09:28:39.145Z,98985.75
2023-03-16T09:31:07.565Z,98990.91
2023-03-16T09:33:37.126Z,98982.03
2023-03-16T09:36:04.728Z,98976.84
2023-03-16T09:38:32.314Z,98969.56
2023-03-16T09:41:02.028Z,98976.03
2023-03-16T09:43:51.952Z,98977.91
2023-03-16T09:46:27.403Z,98979.78
2023-03-16T09:48:57.349Z,98981.63
2023-03-16T09:51:44.655Z,98977.09
2023-03-16T09:54:23.974Z,98978.13
2023-03-16T09:56:52.562Z,98961.97
2023-03-16T09:59:22.806Z,98961.38
2023-03-16T10:02:19.845Z,98969.44
2023-03-16T10:04:57.916Z,98963.50
2023-03-16T10:07:35.239Z,98969.91
2023-03-16T10:10:15.785Z,98964.78
2023-03-16T10:12:48.138Z,98962.06
2023-03-16T10:15:18.626Z,98959.59
2023-03-16T10:17:50.318Z,98966.84
2023-03-16T10:20:21.897Z,98958.78
2023-03-16T10:22:52.791Z,98961.69
2023-03-16T10:25:23.833Z,98962.75
2023-03-16T10:27:51.724Z,98961.91
2023-03-16T10:30:25.959Z,98953.25
2023-03-16T10:32:53.176Z,98959.69
2023-03-16T10:35:38.413Z,98955.13
2023-03-16T10:38:08.621Z,98955.34
2023-03-16T10:40:38.871Z,98954.06
2023-03-16T10:43:09.469Z,98953.25
2023-03-16T10:45:36.774Z,98949.72
2023-03-16T10:48:08.453Z,98949.94
2023-03-16T10:50:37.055Z,98945.84
2023-03-16T10:53:04.426Z,98949.59
2023-03-16T10:55:40.919Z,98946.69
2023-03-16T10:58:09.194Z,98944.00
2023-03-16T11:00:38.554Z,98948.19
2023-03-16T11:03:23.053Z,98945.72
2023-03-16T11:05:59.131Z,98954.25
2023-03-16T11:08:27.756Z,98940.19
2023-03-16T11:10:59.585Z,98935.25
2023-03-16T11:13:34.781Z,98935.25
2023-03-16T11:16:06.588Z,98927.41
2023-03-16T11:18:39.204Z,98928.44
2023-03-16T11:21:16.467Z,98924.91
2023-03-16T11:23:49.796Z,98923.50
2023-03-16T11:26:23.271Z,98923.50
2023-03-16T11:28:56.458Z,98918.94
2023-03-16T11:31:30.500Z,98915.66
2023-03-16T11:33:58.461Z,98913.41
2023-03-16T11:36:43.281Z,98908.00
2023-03-16T11:39:18.197Z,98914.69
2023-03-16T11:41:58.264Z,98911.63
2023-03-16T11:44:32.152Z,98910.56
2023-03-16T11:47:07.409Z,98907.31
2023-03-16T11:49:55.963Z,98904.59
2023-03-16T11:52:36.838Z,98904.00
2023-03-16T11:55:18.406Z,98900.72
2023-03-16T11:57:57.712Z,98895.34
2023-03-16T12:00:35.899Z,98887.28
2023-03-16T12:03:35.188Z,98884.81
2023-03-16T12:06:22.235Z,98881.50
2023-03-16T12:09:35.548Z,98881.75
2023-03-16T12:12:13.094Z,98875.53
2023-03-16T12:14:44.467Z,98869.31
2023-03-16T12:17:13.653Z,98875.53
2023-03-16T12:20:09.936Z,98873.91
2023-03-16T12:22:50.734Z,98852.59
2023-03-16T12:25:36.939Z,98849.91
2023-03-16T12:28:26.127Z,98843.25
2023-03-16T12:31:20.698Z,98845.72
2023-03-16T12:34:03.743Z,98840.34
2023-03-16T12:36:50.994Z,98836.59
2023-03-16T12:39:30.947Z,98830.63
2023-03-16T12:42:08.676Z,98829.56
2023-03-16T12:44:44.266Z,98833.06
2023-03-16T12:47:20.547Z,98828.75
2023-03-16T12:49:48.202Z,98822.56
2023-03-16T12:52:15.345Z,98815.28
2023-03-16T12:54:51.873Z,98812.59
2023-03-16T12:57:20.482Z,98808.41
2023-03-16T12:59:55.184Z,98804.44
2023-03-16T13:02:31.568Z,98802.69
2023-03-16T13:05:02.463Z,98800.59
2023-03-16T13:07:31.945Z,98793.72
2023-03-16T13:10:04.450Z,98786.00
2023-03-16T13:12:37.086Z,98776.66
2023-03-16T13:15:30.204Z,98768.34
2023-03-16T13:18:21.209Z,98775.16
2023-03-16T13:20:54.477Z,98772.22
2023-03-16T13:23:25.038Z,98771.16
2023-03-16T13:26:16.113Z,98771.78
2023-03-16T13:28:49.951Z,98767.19
2023-03-16T13:31:27.665Z,98779.63
2023-03-16T13:33:56.988Z,98777.50
2023-03-16T13:36:25.566Z,98765.44
2023-03-16T13:39:04.561Z,98767.91
2023-03-16T13:41:31.688Z,98768.50
2023-03-16T13:43:58.563Z,98761.00
2023-03-16T13:46:30.429Z,98756.44
2023-03-16T13:49:00.896Z,98748.94
2023-03-16T13:51:30.981Z,98749.78
2023-03-16T13:53:58.139Z,98753.28
2023-03-16T13:56:29.476Z,98749.56
2023-03-16T13:58:58.663Z,98744.72
2023-03-16T14:01:27.620Z,98740.19
2023-03-16T14:04:00.168Z,98735.13
2023-03-16T14:06:28.918Z,98735.13
2023-03-16T14:08:58.813Z,98737.59
2023-03-16T14:11:28.538Z,98738.19
2023-03-16T14:13:57.380Z,98735.25
2023-03-16T14:16:26.721Z,98724.25
2023-03-16T14:18:58.833Z,98725.91
2023-03-16T14:21:29.354Z,98728.34
2023-03-16T14:24:00.317Z,98726.69
2023-03-16T14:26:27.919Z,98728.34
2023-03-16T14:29:02.918Z,98727.53
2023-03-16T14:31:34.950Z,98731.03
2023-03-16T14:34:06.009Z,98726.47
2023-03-16T14:36:38.287Z,98728.34
2023-03-16T14:39:14.237Z,98724.59
2023-03-16T14:41:41.518Z,98730.56
2023-03-16T14:44:20.188Z,98724.13
2023-03-16T14:46:47.573Z,98720.13
2023-03-16T14:49:22.855Z,98717.44
2023-03-16T14:51:52.858Z,98715.56
2023-03-16T14:54:24.421Z,98712.88
2023-03-16T14:56:53.045Z,98718.28
2023-03-16T14:59:21.378Z,98716.63
2023-03-16T15:01:50.555Z,98714.75
2023-03-16T15:04:24.804Z,98710.41
2023-03-16T15:06:52.048Z,98708.56
2023-03-16T15:09:31.530Z,98705.63
2023-03-16T15:11:58.613Z,98698.84
2023-03-16T15:14:45.572Z,98700.72
2023-03-16T15:17:12.619Z,98695.56
2023-03-16T15:19:41.356Z,98694.75
2023-03-16T15:22:12.847Z,98687.47
2023-03-16T15:24:40.200Z,98688.06
2023-03-16T15:27:20.547Z,98688.06
2023-03-16T15:29:47.706Z,98688.06
2023-03-16T15:32:18.243Z,98689.69
2023-03-16T15:34:46.792Z,98678.94
2023-03-16T15:37:15.475Z,98676.78
2023-03-16T15:39:42.953Z,98675.16
2023-03-16T15:42:14.541Z,98680.78
2023-03-16T15:44:41.861Z,98665.69
2023-03-16T15:47:09.416Z,98669.22
2023-03-16T15:49:47.155Z,98671.91
2023-03-16T15:52:24.433Z,98663.81
2023-03-16T15:54:51.718Z,98663.81
2023-03-16T15:57:19.078Z,98659.47
2023-03-16T15:59:47.517Z,98651.97
2023-03-16T16:02:28.544Z,98646.59
2023-03-16T16:04:56.395Z,98654.09
2023-03-16T16:07:25.533Z,98652.44
2023-03-16T16:09:52.838Z,98644.38
2023-03-16T16:12:27.317Z,98649.53
2023-03-16T16:14:56.477Z,98648.69
2023-03-16T16:17:36.416Z,98648.13
2023-03-16T16:20:20.626Z,98641.34
2023-03-16T16:22:49.656Z,98638.06
2023-03-16T16:25:17.462Z,98642.63
2023-03-16T16:27:44.939Z,98633.72
2023-03-16T16:30:20.589Z,98642.88
2023-03-16T16:32:48.085Z,98625.31
2023-03-16T16:35:17.055Z,98634.91
2023-03-16T16:37:45.167Z,98632.47
2023-03-16T16:40:23.296Z,98633.75
2023-03-16T16:42:52.716Z,98627.78
2023-03-16T16:45:21.855Z,98630.47
2023-03-16T16:47:52.636Z,98635.38
2023-03-16T16:50:21.922Z,98635.50
2023-03-16T16:52:50.245Z,98633.16
2023-03-16T16:55:19.372Z,98633.72
2023-03-16T16:57:48.281Z,98634.06
2023-03-16T17:00:21.542Z,98629.84
2023-03-16T17:02:53.774Z,98631.00
2023-03-16T17:05:22.948Z,98626.78
2023-03-16T17:07:51.099Z,98626.91
2023-03-16T17:10:22.358Z,98626.16
2023-03-16T17:12:52.186Z,98623.34
2023-03-16T17:15:24.669Z,98626.19
2023-03-16T17:17:53.196Z,98625.22
2023-03-16T17:20:25.440Z,98635.63
2023-03-16T17:22:54.815Z,98628.78
2023-03-16T17:25:23.551Z,98631.91
2023-03-16T17:27:53.527Z,98625.31
2023-03-16T17:30:27.465Z,98621.41
2023-03-16T17:32:56.489Z,98618.34
2023-03-16T17:35:24.312Z,98629.75
2023-03-16T17:37:51.685Z,98619.69
2023-03-16T17:40:20.846Z,98615.19
2023-03-16T17:42:50.023Z,98616.91
2023-03-16T17:45:19.540Z,98609.69
2023-03-16T17:47:47.776Z,98607.09
2023-03-16T17:50:18.122Z,98602.59
2023-03-16T17:52:45.150Z,98609.72
2023-03-16T17:55:12.736Z,98610.28
2023-03-16T17:57:40.101Z,98607.66
2023-03-16T18:00:21.866Z,98615.25
2023-03-16T18:02:51.748Z,98616.41
2023-03-16T18:05:21.435Z,98611.59
2023-03-16T18:07:52.144Z,98617.53
2023-03-16T18:10:21.130Z,98610.03
2023-03-16T18:12:53.571Z,98615.97
2023-03-16T18:15:25.105Z,98617.38
2023-03-16T18:17:52.705Z,98617.13
2023-03-16T18:20:28.376Z,98610.69
2023-03-16T18:22:56.407Z,98599.03
2023-03-16T18:25:36.243Z,98597.75
2023-03-16T18:28:03.353Z,98596.69
2023-03-16T18:30:33.002Z,98597.50
2023-03-16T18:33:01.469Z,98598.34
2023-03-16T18:35:29.612Z,98597.28
2023-03-16T18:37:57.114Z,98599.72
2023-03-16T18:40:25.815Z,98599.47
2023-03-16T18:42:54.526Z,98599.47
2023-03-16T18:45:22.015Z,98592.19
2023-03-16T18:47:58.262Z,98598.97
2023-03-16T18:50:27.808Z,98592.50
2023-03-16T18:52:56.373Z,98598.41
2023-03-16T18:55:25.247Z,98594.16
2023-03-16T18:57:56.450Z,98595.28
2023-03-16T19:00:26.081Z,98590.44
2023-03-16T19:02:56.619Z,98593.72
2023-03-16T19:05:31.777Z,98587.00
2023-03-16T19:07:58.707Z,98582.97
2023-03-16T19:10:28.357Z,98580.84
2023-03-16T19:12:55.579Z,98585.19
2023-03-16T19:15:24.980Z,98577.06
2023-03-16T19:17:52.550Z,98581.41
2023-03-16T19:20:23.262Z,98585.19
2023-03-16T19:22:53.012Z,98580.31
2023-03-16T19:25:25.990Z,98577.88
2023-03-16T19:27:53.958Z,98577.06
2023-03-16T19:30:24.561Z,98576.00
2023-03-16T19:32:52.238Z,98574.13
2023-03-16T19:35:21.799Z,98574.91
2023-03-16T19:37:49.312Z,98567.66
2023-03-16T19:40:18.816Z,98565.78
2023-03-16T19:42:46.752Z,98571.19
2023-03-16T19:45:24.675Z,98570.34
2023-03-16T19:47:52.591Z,98571.97
2023-03-16T19:50:22.751Z,98571.19
2023-03-16T19:52:50.429Z,98581.47
2023-03-16T19:55:20.552Z,98568.53
2023-03-16T20:00:50.468Z,98568.53
2023-03-16T20:03:17.502Z,98563.91
2023-03-16T20:05:45.710Z,98568.53
2023-03-16T20:08:21.296Z,98560.44
2023-03-16T20:10:48.891Z,98555.03
2023-03-16T20:13:15.906Z,98553.94
2023-03-16T20:15:43.610Z,98555.56
2023-03-16T20:18:15.434Z,98558.84
2023-03-16T20:20:43.738Z,98551.28
2023-03-16T20:23:20.494Z,98547.50
2023-03-16T20:25:48.937Z,98543.75
2023-03-16T20:28:19.935Z,98542.69
2023-03-16T20:30:47.918Z,98539.16
2023-03-16T20:33:19.993Z,98538.38
2023-03-16T20:35:47.595Z,98536.72
2023-03-16T20:38:15.689Z,98532.63
2023-03-16T20:40:46.479Z,98529.63
2023-03-16T20:43:32.761Z,98529.03
2023-03-16T20:46:02.543Z,98521.72
2023-03-16T20:48:29.765Z,98524.66
2023-03-16T20:50:58.148Z,98520.34
2023-03-16T20:53:25.446Z,98526.25
2023-03-16T20:55:55.284Z,98519.94
2023-03-16T20:58:25.340Z,98512.63
2023-03-16T21:00:57.559Z,98507.72
2023-03-16T21:03:27.600Z,98513.31
2023-03-16T21:05:58.998Z,98515.66
2023-03-16T21:08:26.959Z,98520.72
2023-03-16T21:10:57.131Z,98522.53
2023-03-16T21:13:28.621Z,98515.19
2023-03-16T21:15:57.956Z,98515.94
2023-03-16T21:18:25.451Z,98511.53
2023-03-16T21:20:53.213Z,98502.28
2023-03-16T21:23:22.429Z,98499.84
2023-03-16T21:25:51.542Z,98494.72
2023-03-16T21:28:20.824Z,98496.84
2023-03-16T21:30:50.304Z,98496.53
2023-03-16T21:33:24.601Z,98501.59
2023-03-16T21:35:52.325Z,98495.03
2023-03-16T21:38:20.897Z,98495.56
2023-03-16T21:40:48.371Z,98493.91
2023-03-16T21:43:15.872Z,98490.06
2023-03-16T21:45:45.286Z,98496.53
2023-03-16T21:48:15.621Z,98488.94
2023-03-16T21:50:42.856Z,98500.00
2023-03-16T21:53:19.933Z,98501.28
2023-03-16T21:55:47.323Z,98499.34
2023-03-16T21:58:14.117Z,98502.28
2023-03-16T22:00:41.645Z,98500.03
2023-03-16T22:03:22.652Z,98503.22
2023-03-16T22:05:49.540Z,98512.06
2023-03-16T22:08:22.400Z,98506.31
2023-03-16T22:10:49.773Z,98498.16
2023-03-16T22:13:18.976Z,98499.72
2023-03-16T22:15:48.408Z,98494.25
2023-03-16T22:18:27.951Z,98493.66
2023-03-16T22:20:55.906Z,98486.09
2023-03-16T22:23:29.692Z,98478.78
2023-03-16T22:25:56.824Z,98472.53
2023-03-16T22:28:25.004Z,98466.53
2023-03-16T22:30:52.466Z,98450.06
2023-03-16T22:33:24.881Z,98450.84
2023-03-16T22:35:52.660Z,98448.16
2023-03-16T22:38:19.502Z,98450.28
2023-03-16T22:40:46.283Z,98453.47
2023-03-16T22:43:17.581Z,98459.09
2023-03-16T22:45:44.392Z,98445.06
2023-03-16T22:48:18.222Z,98436.88
2023-03-16T22:50:47.231Z,98437.16
2023-03-16T22:53:20.522Z,98436.56
2023-03-16T22:55:48.492Z,98436.56
2023-03-16T22:58:19.332Z,98445.72
2023-03-16T23:00:46.310Z,98443.25
2023-03-16T23:03:17.018Z,98441.38
2023-03-16T23:05:43.972Z,98435.41
2023-03-16T23:08:15.558Z,98444.56
2023-03-16T23:10:42.556Z,98447.75
2023-03-16T23:13:14.070Z,98437.41
2023-03-16T23:15:41.589Z,98440.34
2023-03-16T23:18:16.520Z,98441.66
2023-03-16T23:20:43.582Z,98438.41
2023-03-16T23:23:10.470Z,98441.09
2023-03-16T23:25:39.118Z,98444.84
2023-03-16T23:28:07.177Z,98439.09
2023-03-16T23:30:34.917Z,98446.63
2023-03-16T23:33:01.964Z,98449.56
2023-03-16T23:35:30.957Z,98442.56
2023-03-16T23:37:57.769Z,98439.25
2023-03-16T23:40:28.140Z,98448.41
2023-03-16T23:42:59.965Z,98444.09
2023-03-16T23:45:32.405Z,98438.94
2023-03-16T23:48:02.463Z,98443.75
2023-03-16T23:50:32.433Z,98447.75
2023-03-16T23:52:59.753Z,98452.56
2023-03-16T23:55:26.635Z,98455.81
2023-03-16T23:57:53.716Z,98452.81
